Time;durP1;ratioP1;P1;durP2;ratioP2;P2;SDS_P1;SDS_P2;PMS_P1;PMS_P2;Temp;Humidity;BMP_temperature;BMP_pressure;BME280_temperature;BME280_humidity;BME280_pressure;Samples;Min_cycle;Max_cycle;Signal;HPM_P1;HPM_P2
2022/08/16 00:01:21;;;;;;;;;;;22.50;48.00;;;;;;484095;246;1144;-74
2022/08/16 00:03:23;;;;;;;;;;;22.50;48.00;;;;;;484068;246;1424;-74
2022/08/16 00:05:24;;;;;;;;;;;22.60;48.00;;;;;;484089;246;1102;-74
2022/08/16 00:07:25;;;;;;;;;;;22.60;48.00;;;;;;483991;246;1206;-74
2022/08/16 00:09:27;;;;;;;;;;;22.70;47.80;;;;;;484103;246;1117;-74
2022/08/16 00:11:28;;;;;;;;;;;22.70;47.70;;;;;;484032;246;1156;-74
2022/08/16 00:13:31;;;;;;;;;;;22.70;47.80;;;;;;484154;246;1181;-74
2022/08/16 00:15:31;;;;;;;;;;;22.70;47.90;;;;;;484073;246;1425;-74
2022/08/16 00:17:32;;;;;;;;;;;22.70;47.90;;;;;;483973;246;1126;-74
2022/08/16 00:19:33;;;;;;;;;;;22.70;47.90;;;;;;484100;246;2203;-74
2022/08/16 00:21:35;;;;;;;;;;;22.70;47.80;;;;;;484111;246;1217;-74
2022/08/16 00:23:36;;;;;;;;;;;22.80;47.70;;;;;;484197;246;1130;-74
2022/08/16 00:25:37;;;;;;;;;;;22.80;47.70;;;;;;484082;246;1260;-74
2022/08/16 00:27:39;;;;;;;;;;;22.70;47.90;;;;;;484023;246;1170;-74
2022/08/16 00:29:40;;;;;;;;;;;22.60;48.20;;;;;;484087;246;1094;-74
2022/08/16 00:31:41;;;;;;;;;;;22.60;48.20;;;;;;484073;246;1137;-74
2022/08/16 00:33:43;;;;;;;;;;;22.70;48.20;;;;;;484058;246;1151;-74
2022/08/16 00:35:44;;;;;;;;;;;22.70;48.10;;;;;;484158;246;1145;-74
2022/08/16 00:37:46;;;;;;;;;;;22.70;48.00;;;;;;484046;246;1068;-74
2022/08/16 00:39:47;;;;;;;;;;;22.70;48.00;;;;;;484070;246;2191;-74
2022/08/16 00:41:48;;;;;;;;;;;22.70;48.00;;;;;;483967;246;1162;-74
2022/08/16 00:43:51;;;;;;;;;;;22.70;48.10;;;;;;484118;246;1125;-74
2022/08/16 00:45:51;;;;;;;;;;;22.70;48.20;;;;;;484206;246;1314;-74
2022/08/16 00:47:52;;;;;;;;;;;22.60;48.30;;;;;;484040;246;1328;-74
2022/08/16 00:49:54;;;;;;;;;;;22.60;48.30;;;;;;484012;242;1190;-74
2022/08/16 00:51:55;;;;;;;;;;;22.60;48.30;;;;;;484031;246;1129;-74
2022/08/16 00:53:57;;;;;;;;;;;22.60;48.40;;;;;;484138;246;1145;-74
2022/08/16 00:55:58;;;;;;;;;;;22.60;48.40;;;;;;484110;246;1277;-74
2022/08/16 00:57:59;;;;;;;;;;;22.60;48.40;;;;;;484187;246;1158;-74
2022/08/16 01:00:01;;;;;;;;;;;22.60;48.40;;;;;;484216;246;2208;-74
2022/08/16 01:02:02;;;;;;;;;;;22.60;48.40;;;;;;484094;242;1088;-74
2022/08/16 01:04:03;;;;;;;;;;;22.60;48.40;;;;;;484132;246;1116;-74
2022/08/16 01:06:06;;;;;;;;;;;22.60;48.40;;;;;;484071;246;1142;-74
2022/08/16 01:08:07;;;;;;;;;;;22.60;48.40;;;;;;484161;246;1070;-74
2022/08/16 01:10:08;;;;;;;;;;;22.60;48.40;;;;;;484048;246;1132;-75
2022/08/16 01:12:10;;;;;;;;;;;22.70;48.30;;;;;;484041;246;1099;-74
2022/08/16 01:14:11;;;;;;;;;;;22.60;48.30;;;;;;484210;246;1241;-74
2022/08/16 01:16:12;;;;;;;;;;;22.70;48.30;;;;;;484144;246;1193;-74
2022/08/16 01:18:15;;;;;;;;;;;22.70;48.20;;;;;;484082;242;1153;-74
2022/08/16 01:20:15;;;;;;;;;;;22.70;48.20;;;;;;484049;246;2152;-74
2022/08/16 01:22:18;;;;;;;;;;;22.60;48.20;;;;;;484163;246;1199;-74
2022/08/16 01:24:18;;;;;;;;;;;22.60;48.20;;;;;;484080;246;1421;-74
2022/08/16 01:26:19;;;;;;;;;;;22.60;48.10;;;;;;484127;242;1424;-74
2022/08/16 01:28:21;;;;;;;;;;;22.50;48.20;;;;;;484168;246;1269;-74
2022/08/16 01:30:22;;;;;;;;;;;22.60;48.30;;;;;;484129;246;1208;-74
2022/08/16 01:32:24;;;;;;;;;;;22.60;48.20;;;;;;484113;246;1120;-74
2022/08/16 01:34:25;;;;;;;;;;;22.60;48.10;;;;;;484123;246;1093;-74
2022/08/16 01:36:28;;;;;;;;;;;22.60;48.20;;;;;;484122;246;1355;-74
2022/08/16 01:38:28;;;;;;;;;;;22.60;48.20;;;;;;483943;246;1605;-74
2022/08/16 01:40:29;;;;;;;;;;;22.60;48.20;;;;;;484104;246;2200;-74
2022/08/16 01:42:30;;;;;;;;;;;22.70;48.10;;;;;;483935;246;1113;-74
2022/08/16 01:44:32;;;;;;;;;;;22.60;48.10;;;;;;484087;246;1097;-74
2022/08/16 01:46:33;;;;;;;;;;;22.60;48.30;;;;;;484100;246;1237;-74
2022/08/16 01:48:34;;;;;;;;;;;22.60;48.40;;;;;;484183;246;1101;-74
2022/08/16 01:50:36;;;;;;;;;;;22.50;48.40;;;;;;484186;246;1038;-74
2022/08/16 01:52:37;;;;;;;;;;;22.50;48.50;;;;;;484097;246;1149;-74
2022/08/16 01:54:39;;;;;;;;;;;22.40;48.60;;;;;;484092;242;1143;-74
2022/08/16 01:56:40;;;;;;;;;;;22.50;48.60;;;;;;484099;246;1229;-74
2022/08/16 01:58:42;;;;;;;;;;;22.60;48.50;;;;;;484132;246;1069;-74
2022/08/16 02:00:43;;;;;;;;;;;22.50;48.50;;;;;;484077;246;2188;-74
2022/08/16 02:02:45;;;;;;;;;;;22.50;48.60;;;;;;484076;246;1148;-74
2022/08/16 02:04:46;;;;;;;;;;;22.50;48.50;;;;;;484054;246;1173;-74
2022/08/16 02:06:47;;;;;;;;;;;22.50;48.60;;;;;;484004;246;1186;-74
2022/08/16 02:08:49;;;;;;;;;;;22.70;48.50;;;;;;484093;246;1085;-74
2022/08/16 02:10:51;;;;;;;;;;;22.60;48.40;;;;;;484142;246;1237;-74
2022/08/16 02:12:51;;;;;;;;;;;22.60;48.60;;;;;;484043;246;1401;-74
2022/08/16 02:14:53;;;;;;;;;;;22.50;48.70;;;;;;484123;246;1097;-74
2022/08/16 02:16:54;;;;;;;;;;;22.60;48.70;;;;;;484041;246;1138;-74
2022/08/16 02:18:55;;;;;;;;;;;22.60;48.70;;;;;;484043;246;1117;-74
2022/08/16 02:20:57;;;;;;;;;;;22.60;48.60;;;;;;484112;246;2192;-74
2022/08/16 02:22:58;;;;;;;;;;;22.70;48.50;;;;;;484115;246;1151;-74
2022/08/16 02:24:59;;;;;;;;;;;22.70;48.50;;;;;;484216;246;1182;-74
2022/08/16 02:27:01;;;;;;;;;;;22.70;48.40;;;;;;484124;246;1472;-74
2022/08/16 02:29:02;;;;;;;;;;;22.70;48.50;;;;;;484103;246;1204;-74
2022/08/16 02:31:03;;;;;;;;;;;22.70;48.60;;;;;;484151;246;1209;-74
2022/08/16 02:33:05;;;;;;;;;;;22.60;48.50;;;;;;484177;246;1134;-74
2022/08/16 02:35:06;;;;;;;;;;;22.70;48.40;;;;;;484130;246;1057;-74
2022/08/16 02:37:07;;;;;;;;;;;22.70;48.40;;;;;;484161;246;1100;-74
2022/08/16 02:39:09;;;;;;;;;;;22.60;48.50;;;;;;484139;246;1041;-74
2022/08/16 02:41:10;;;;;;;;;;;22.60;48.60;;;;;;484180;246;2188;-74
2022/08/16 02:43:12;;;;;;;;;;;22.60;48.60;;;;;;484140;246;1177;-74
2022/08/16 02:45:13;;;;;;;;;;;22.60;48.50;;;;;;484127;246;1365;-74
2022/08/16 02:47:14;;;;;;;;;;;22.50;48.60;;;;;;484137;246;1064;-74
2022/08/16 02:49:15;;;;;;;;;;;22.50;48.80;;;;;;484166;246;1063;-74
2022/08/16 02:51:17;;;;;;;;;;;22.50;48.70;;;;;;484162;246;1095;-74
2022/08/16 02:53:18;;;;;;;;;;;22.50;48.70;;;;;;484116;246;1014;-74
2022/08/16 02:55:19;;;;;;;;;;;22.60;48.70;;;;;;484135;246;1155;-74
2022/08/16 02:57:22;;;;;;;;;;;22.60;48.50;;;;;;484172;246;1105;-74
2022/08/16 02:59:23;;;;;;;;;;;22.70;48.30;;;;;;484026;246;1202;-74
2022/08/16 03:01:24;;;;;;;;;;;22.70;48.30;;;;;;484133;246;2210;-74
2022/08/16 03:03:25;;;;;;;;;;;22.70;48.20;;;;;;484160;246;1084;-74
2022/08/16 03:05:26;;;;;;;;;;;22.60;48.40;;;;;;484218;246;1172;-74
2022/08/16 03:07:28;;;;;;;;;;;22.60;48.40;;;;;;484124;246;1066;-74
2022/08/16 03:09:29;;;;;;;;;;;22.70;48.50;;;;;;484146;246;1130;-74
2022/08/16 03:11:31;;;;;;;;;;;22.60;48.50;;;;;;484142;246;1167;-74
2022/08/16 03:13:32;;;;;;;;;;;22.60;48.60;;;;;;484155;246;1599;-74
2022/08/16 03:15:33;;;;;;;;;;;22.60;48.60;;;;;;484122;246;1156;-74
2022/08/16 03:17:35;;;;;;;;;;;22.60;48.60;;;;;;484068;242;1147;-74
2022/08/16 03:19:36;;;;;;;;;;;22.60;48.50;;;;;;484161;246;1215;-74
2022/08/16 03:21:37;;;;;;;;;;;22.60;48.40;;;;;;484176;246;2204;-74
2022/08/16 03:23:39;;;;;;;;;;;22.60;48.50;;;;;;484137;246;1022;-74
2022/08/16 03:25:40;;;;;;;;;;;22.50;48.50;;;;;;484124;246;1050;-74
2022/08/16 03:27:41;;;;;;;;;;;22.60;48.50;;;;;;484099;246;1092;-74
2022/08/16 03:29:43;;;;;;;;;;;22.60;48.20;;;;;;484171;246;1070;-74
2022/08/16 03:31:44;;;;;;;;;;;22.60;48.30;;;;;;484119;246;1051;-74
2022/08/16 03:33:45;;;;;;;;;;;22.50;48.30;;;;;;484025;246;1061;-74
2022/08/16 03:35:47;;;;;;;;;;;22.50;48.40;;;;;;484107;246;1060;-74
2022/08/16 03:37:48;;;;;;;;;;;22.40;48.50;;;;;;484135;246;1012;-74
2022/08/16 03:39:49;;;;;;;;;;;22.40;48.60;;;;;;484059;246;1236;-74
2022/08/16 03:41:51;;;;;;;;;;;22.40;48.60;;;;;;484032;246;2116;-74
2022/08/16 03:43:53;;;;;;;;;;;22.40;48.70;;;;;;484094;246;1157;-74
2022/08/16 03:45:56;;;;;;;;;;;22.30;48.70;;;;;;484070;246;1100;-74
2022/08/16 03:47:56;;;;;;;;;;;22.30;48.80;;;;;;484049;246;1409;-74
2022/08/16 03:49:58;;;;;;;;;;;22.20;49.00;;;;;;484116;246;1032;-74
2022/08/16 03:51:59;;;;;;;;;;;22.10;49.10;;;;;;484163;246;1112;-75
2022/08/16 03:54:00;;;;;;;;;;;22.20;49.10;;;;;;484120;246;1175;-74
2022/08/16 03:56:02;;;;;;;;;;;22.30;49.00;;;;;;484134;246;1277;-74
2022/08/16 03:58:03;;;;;;;;;;;22.20;49.00;;;;;;484178;246;1417;-74
2022/08/16 04:00:11;;;;;;;;;;;22.20;49.10;;;;;;484194;246;2153;-74
2022/08/16 04:02:07;;;;;;;;;;;22.20;49.10;;;;;;483681;246;1429;-74
2022/08/16 04:04:08;;;;;;;;;;;22.30;49.00;;;;;;484000;246;1067;-74
2022/08/16 04:06:10;;;;;;;;;;;22.30;49.00;;;;;;483985;246;1145;-74
2022/08/16 04:08:11;;;;;;;;;;;22.30;49.00;;;;;;484104;246;1105;-74
2022/08/16 04:10:12;;;;;;;;;;;22.30;49.00;;;;;;484073;246;1169;-74
2022/08/16 04:12:14;;;;;;;;;;;22.30;49.00;;;;;;484015;246;1161;-74
2022/08/16 04:14:15;;;;;;;;;;;22.30;49.00;;;;;;484011;246;1174;-74
2022/08/16 04:16:16;;;;;;;;;;;22.20;49.10;;;;;;484019;246;1105;-74
2022/08/16 04:18:18;;;;;;;;;;;22.20;49.10;;;;;;483938;246;1079;-74
2022/08/16 04:20:19;;;;;;;;;;;22.20;49.00;;;;;;483878;246;2192;-74
2022/08/16 04:22:20;;;;;;;;;;;22.30;49.00;;;;;;483890;246;1288;-74
2022/08/16 04:24:22;;;;;;;;;;;22.30;49.00;;;;;;483975;246;1129;-74
2022/08/16 04:26:23;;;;;;;;;;;22.30;48.80;;;;;;484023;246;1183;-74
2022/08/16 04:28:25;;;;;;;;;;;22.30;49.00;;;;;;483959;246;1247;-74
2022/08/16 04:30:26;;;;;;;;;;;22.30;49.00;;;;;;483867;246;1328;-74
2022/08/16 04:32:27;;;;;;;;;;;22.30;49.00;;;;;;483884;246;1187;-74
2022/08/16 04:34:28;;;;;;;;;;;22.20;49.00;;;;;;483878;246;1060;-74
2022/08/16 04:36:30;;;;;;;;;;;22.30;49.00;;;;;;483930;246;1110;-74
2022/08/16 04:38:31;;;;;;;;;;;22.30;49.00;;;;;;483952;246;1117;-74
2022/08/16 04:40:33;;;;;;;;;;;22.30;49.00;;;;;;483860;246;2156;-74
2022/08/16 04:42:34;;;;;;;;;;;22.30;48.90;;;;;;483835;246;1226;-74
2022/08/16 04:44:35;;;;;;;;;;;22.30;48.80;;;;;;483783;246;1175;-74
2022/08/16 04:46:36;;;;;;;;;;;22.40;48.80;;;;;;483788;246;1075;-74
2022/08/16 04:48:38;;;;;;;;;;;22.40;48.70;;;;;;483834;246;1153;-74
2022/08/16 04:50:39;;;;;;;;;;;22.40;48.70;;;;;;483811;246;1402;-74
2022/08/16 04:52:41;;;;;;;;;;;22.50;48.70;;;;;;483805;246;1161;-74
2022/08/16 04:54:42;;;;;;;;;;;22.40;48.70;;;;;;483948;246;1182;-74
2022/08/16 04:56:43;;;;;;;;;;;22.30;48.90;;;;;;483838;246;1100;-74
2022/08/16 04:58:44;;;;;;;;;;;22.20;49.00;;;;;;484033;246;1144;-74
2022/08/16 05:00:46;;;;;;;;;;;22.20;49.20;;;;;;483941;246;2172;-74
2022/08/16 05:02:47;;;;;;;;;;;22.20;49.30;;;;;;483986;246;1307;-74
2022/08/16 05:04:49;;;;;;;;;;;22.30;49.20;;;;;;483845;246;995;-74
2022/08/16 05:06:50;;;;;;;;;;;22.30;49.00;;;;;;483807;246;1077;-74
2022/08/16 05:08:51;;;;;;;;;;;22.30;49.00;;;;;;483917;246;1029;-74
2022/08/16 05:10:52;;;;;;;;;;;22.30;49.00;;;;;;483968;246;1202;-74
2022/08/16 05:12:54;;;;;;;;;;;22.30;48.90;;;;;;484047;246;1084;-74
2022/08/16 05:14:55;;;;;;;;;;;22.30;48.90;;;;;;484014;246;1062;-74
2022/08/16 05:16:57;;;;;;;;;;;22.40;48.80;;;;;;483982;246;1122;-74
2022/08/16 05:18:58;;;;;;;;;;;22.30;48.90;;;;;;483931;246;1038;-74
2022/08/16 05:20:59;;;;;;;;;;;22.30;48.90;;;;;;483942;246;2156;-74
2022/08/16 05:23:00;;;;;;;;;;;22.30;49.00;;;;;;483946;246;1216;-74
2022/08/16 05:25:02;;;;;;;;;;;22.20;48.90;;;;;;483885;246;1088;-74
2022/08/16 05:27:03;;;;;;;;;;;22.20;48.90;;;;;;483905;246;1059;-74
2022/08/16 05:29:05;;;;;;;;;;;22.20;49.00;;;;;;483875;246;1074;-74
2022/08/16 05:31:06;;;;;;;;;;;22.20;49.00;;;;;;483856;246;1115;-74
2022/08/16 05:33:08;;;;;;;;;;;22.20;49.00;;;;;;483876;246;1123;-74
2022/08/16 05:35:09;;;;;;;;;;;22.20;49.10;;;;;;483724;246;1127;-74
2022/08/16 05:37:11;;;;;;;;;;;22.20;49.10;;;;;;483709;246;1059;-74
2022/08/16 05:39:12;;;;;;;;;;;22.20;49.10;;;;;;483731;246;1092;-74
2022/08/16 05:41:13;;;;;;;;;;;22.20;49.20;;;;;;483687;246;2199;-74
2022/08/16 05:43:15;;;;;;;;;;;22.20;49.10;;;;;;483737;246;1077;-74
2022/08/16 05:45:16;;;;;;;;;;;22.20;49.20;;;;;;483723;246;1305;-74
2022/08/16 05:47:17;;;;;;;;;;;22.10;49.20;;;;;;483792;246;1198;-74
2022/08/16 05:49:19;;;;;;;;;;;22.20;49.30;;;;;;484009;246;1128;-74
2022/08/16 05:51:20;;;;;;;;;;;22.20;49.30;;;;;;483859;246;1064;-74
2022/08/16 05:53:21;;;;;;;;;;;22.20;49.30;;;;;;483898;246;1085;-74
2022/08/16 05:55:23;;;;;;;;;;;22.20;49.20;;;;;;483736;246;1053;-74
2022/08/16 05:57:24;;;;;;;;;;;22.30;49.30;;;;;;483734;246;1140;-74
2022/08/16 05:59:25;;;;;;;;;;;22.30;49.30;;;;;;483767;246;1184;-74
2022/08/16 06:01:27;;;;;;;;;;;22.30;49.20;;;;;;483702;246;2199;-74
2022/08/16 06:03:28;;;;;;;;;;;22.30;49.20;;;;;;483673;246;1200;-74
2022/08/16 06:05:29;;;;;;;;;;;22.30;49.40;;;;;;483678;246;1116;-74
2022/08/16 06:07:31;;;;;;;;;;;22.20;49.50;;;;;;483759;246;1034;-74
2022/08/16 06:09:32;;;;;;;;;;;22.30;49.30;;;;;;483635;246;1193;-75
2022/08/16 06:11:33;;;;;;;;;;;22.30;49.30;;;;;;483640;246;1049;-74
2022/08/16 06:13:36;;;;;;;;;;;22.30;49.30;;;;;;483668;242;994;-74
2022/08/16 06:15:36;;;;;;;;;;;22.30;49.40;;;;;;483550;246;1396;-74
2022/08/16 06:17:37;;;;;;;;;;;22.30;49.50;;;;;;483687;246;1086;-74
2022/08/16 06:19:39;;;;;;;;;;;22.30;49.50;;;;;;483779;246;1013;-74
2022/08/16 06:21:40;;;;;;;;;;;22.30;49.60;;;;;;483770;246;2149;-74
2022/08/16 06:23:41;;;;;;;;;;;22.30;49.60;;;;;;483772;246;1041;-74
2022/08/16 06:25:43;;;;;;;;;;;22.30;49.60;;;;;;483634;246;1059;-74
2022/08/16 06:27:44;;;;;;;;;;;22.30;49.60;;;;;;483774;246;1035;-74
2022/08/16 06:29:45;;;;;;;;;;;22.20;49.60;;;;;;483661;246;1141;-74
2022/08/16 06:31:47;;;;;;;;;;;22.30;49.60;;;;;;483666;246;1129;-74
2022/08/16 06:33:48;;;;;;;;;;;22.30;49.60;;;;;;483751;246;1059;-74
2022/08/16 06:35:49;;;;;;;;;;;22.40;50.00;;;;;;483802;246;1015;-74
2022/08/16 06:37:51;;;;;;;;;;;22.30;54.10;;;;;;483632;246;1069;-74
2022/08/16 06:39:52;;;;;;;;;;;22.20;55.50;;;;;;483700;246;1724;-74
2022/08/16 06:41:53;;;;;;;;;;;22.10;56.00;;;;;;483654;246;2179;-74
2022/08/16 06:43:55;;;;;;;;;;;22.00;56.40;;;;;;483579;246;1098;-74
2022/08/16 06:45:56;;;;;;;;;;;21.90;56.80;;;;;;483514;246;1210;-74
2022/08/16 06:47:57;;;;;;;;;;;21.80;57.30;;;;;;483524;246;1129;-74
2022/08/16 06:49:59;;;;;;;;;;;21.80;57.40;;;;;;483402;246;1076;-74
2022/08/16 06:52:00;;;;;;;;;;;21.60;55.90;;;;;;483411;246;1152;-74
2022/08/16 06:54:01;;;;;;;;;;;21.80;54.90;;;;;;483029;246;1181;-74
2022/08/16 06:56:04;;;;;;;;;;;21.90;54.30;;;;;;483398;246;1163;-74
2022/08/16 06:58:05;;;;;;;;;;;21.80;56.10;;;;;;483380;246;1254;-74
2022/08/16 07:00:11;;;;;;;;;;;21.70;56.70;;;;;;483382;246;1079;-74
2022/08/16 07:02:12;;;;;;;;;;;21.70;57.20;;;;;;483318;246;2156;-74
2022/08/16 07:04:13;;;;;;;;;;;21.60;57.40;;;;;;483511;246;1055;-74
2022/08/16 07:06:15;;;;;;;;;;;21.50;57.70;;;;;;483306;246;1079;-74
2022/08/16 07:08:16;;;;;;;;;;;21.40;56.70;;;;;;483389;246;1061;-74
2022/08/16 07:10:17;;;;;;;;;;;21.50;55.70;;;;;;483363;246;1196;-74
2022/08/16 07:12:19;;;;;;;;;;;21.70;54.70;;;;;;483288;246;1120;-74
2022/08/16 07:14:20;;;;;;;;;;;21.80;55.10;;;;;;483330;246;1132;-74
2022/08/16 07:16:21;;;;;;;;;;;21.70;56.20;;;;;;483104;246;1183;-74
2022/08/16 07:18:23;;;;;;;;;;;21.60;56.70;;;;;;483263;246;1372;-74
2022/08/16 07:20:25;;;;;;;;;;;21.50;56.90;;;;;;483313;246;1097;-73
2022/08/16 07:22:25;;;;;;;;;;;21.50;57.40;;;;;;483265;246;2215;-74
2022/08/16 07:24:27;;;;;;;;;;;21.30;56.60;;;;;;483365;246;1047;-74
2022/08/16 07:26:29;;;;;;;;;;;21.30;56.20;;;;;;483335;246;1255;-74
2022/08/16 07:28:30;;;;;;;;;;;21.60;55.40;;;;;;483309;246;1087;-74
2022/08/16 07:30:31;;;;;;;;;;;21.80;54.30;;;;;;483296;246;1121;-74
2022/08/16 07:32:33;;;;;;;;;;;21.90;55.00;;;;;;483340;246;1312;-74
2022/08/16 07:34:34;;;;;;;;;;;21.80;55.70;;;;;;483162;246;1055;-74
2022/08/16 07:36:36;;;;;;;;;;;21.60;56.30;;;;;;483073;246;1195;-74
2022/08/16 07:38:37;;;;;;;;;;;21.50;56.60;;;;;;483302;246;1126;-74
2022/08/16 07:40:38;;;;;;;;;;;21.50;57.00;;;;;;483250;246;1063;-74
2022/08/16 07:42:39;;;;;;;;;;;21.40;56.70;;;;;;483284;246;2149;-74
2022/08/16 07:44:41;;;;;;;;;;;21.40;56.00;;;;;;483105;246;1146;-74
2022/08/16 07:46:42;;;;;;;;;;;21.50;55.20;;;;;;483126;246;1176;-74
2022/08/16 07:48:43;;;;;;;;;;;21.70;54.40;;;;;;483141;246;1268;-74
2022/08/16 07:50:45;;;;;;;;;;;21.80;53.80;;;;;;483218;246;1056;-74
2022/08/16 07:52:47;;;;;;;;;;;21.70;54.90;;;;;;483328;246;1063;-74
2022/08/16 07:54:47;;;;;;;;;;;21.60;55.60;;;;;;483131;242;1515;-74
2022/08/16 07:56:49;;;;;;;;;;;21.50;56.10;;;;;;483242;246;1182;-74
2022/08/16 07:58:50;;;;;;;;;;;21.30;56.50;;;;;;483157;246;1172;-74
2022/08/16 08:00:51;;;;;;;;;;;21.30;56.50;;;;;;483376;246;1135;-74
2022/08/16 08:02:54;;;;;;;;;;;21.20;56.00;;;;;;482955;246;2203;-74
2022/08/16 08:04:54;;;;;;;;;;;21.30;55.10;;;;;;483057;246;1362;-74
2022/08/16 08:06:55;;;;;;;;;;;21.40;54.30;;;;;;483137;246;1197;-74
2022/08/16 08:08:57;;;;;;;;;;;21.50;54.00;;;;;;483191;246;1075;-74
2022/08/16 08:10:58;;;;;;;;;;;21.50;54.80;;;;;;483194;246;1178;-74
2022/08/16 08:12:59;;;;;;;;;;;21.30;55.40;;;;;;483146;246;1157;-74
2022/08/16 08:15:01;;;;;;;;;;;21.20;55.90;;;;;;483158;246;1162;-74
2022/08/16 08:17:03;;;;;;;;;;;21.00;56.50;;;;;;483220;242;1154;-74
2022/08/16 08:19:04;;;;;;;;;;;21.00;55.90;;;;;;483040;246;2034;-74
2022/08/16 08:21:06;;;;;;;;;;;21.20;55.30;;;;;;483042;246;1064;-74
2022/08/16 08:23:07;;;;;;;;;;;21.40;54.20;;;;;;482982;246;2164;-74
2022/08/16 08:25:07;;;;;;;;;;;21.60;53.50;;;;;;483226;246;1159;-74
2022/08/16 08:27:09;;;;;;;;;;;21.70;53.60;;;;;;483356;246;1008;-74
2022/08/16 08:29:10;;;;;;;;;;;21.60;54.60;;;;;;483945;246;1085;-74
2022/08/16 08:31:11;;;;;;;;;;;21.50;55.00;;;;;;483391;246;1263;-74
2022/08/16 08:33:13;;;;;;;;;;;21.40;55.50;;;;;;483293;246;1132;-74
2022/08/16 08:35:14;;;;;;;;;;;21.40;55.70;;;;;;483404;246;1173;-74
2022/08/16 08:37:15;;;;;;;;;;;21.20;55.30;;;;;;483820;246;1068;-74
2022/08/16 08:39:17;;;;;;;;;;;21.40;54.90;;;;;;483118;246;1174;-74
2022/08/16 08:41:18;;;;;;;;;;;21.60;54.00;;;;;;483331;246;1156;-74
2022/08/16 08:43:20;;;;;;;;;;;21.80;53.40;;;;;;483311;246;2199;-74
2022/08/16 08:45:22;;;;;;;;;;;21.80;54.30;;;;;;483096;246;1339;-74
2022/08/16 08:47:22;;;;;;;;;;;21.60;54.90;;;;;;483042;246;1979;-74
2022/08/16 08:49:23;;;;;;;;;;;21.60;55.30;;;;;;483183;246;1245;-74
2022/08/16 08:51:25;;;;;;;;;;;21.60;55.50;;;;;;483129;246;1180;-74
2022/08/16 08:53:26;;;;;;;;;;;21.50;55.80;;;;;;483195;246;1402;-74
2022/08/16 08:55:27;;;;;;;;;;;21.40;55.20;;;;;;483178;246;1083;-74
2022/08/16 08:57:29;;;;;;;;;;;21.60;54.30;;;;;;483105;246;1227;-74
2022/08/16 08:59:30;;;;;;;;;;;21.80;53.60;;;;;;483108;246;1088;-74
2022/08/16 09:01:31;;;;;;;;;;;21.90;53.70;;;;;;483064;246;1239;-74
2022/08/16 09:03:33;;;;;;;;;;;21.80;54.30;;;;;;483165;246;2172;-74
2022/08/16 09:05:35;;;;;;;;;;;21.80;54.70;;;;;;483124;246;1241;-74
2022/08/16 09:07:37;;;;;;;;;;;21.60;55.00;;;;;;483113;246;1323;-74
2022/08/16 09:09:38;;;;;;;;;;;21.50;55.50;;;;;;483433;246;1478;-74
2022/08/16 09:11:41;;;;;;;;;;;21.50;55.80;;;;;;483158;246;1246;-74
2022/08/16 09:13:40;;;;;;;;;;;21.30;55.20;;;;;;483008;246;1349;-74
2022/08/16 09:15:42;;;;;;;;;;;21.40;55.00;;;;;;482993;246;1206;-74
2022/08/16 09:17:43;;;;;;;;;;;21.60;54.30;;;;;;482956;246;2438;-74
2022/08/16 09:19:45;;;;;;;;;;;21.80;54.20;;;;;;483349;246;1193;-74
2022/08/16 09:21:48;;;;;;;;;;;21.70;54.70;;;;;;483209;246;1064;-74
2022/08/16 09:23:47;;;;;;;;;;;21.60;55.00;;;;;;483143;246;2180;-74
2022/08/16 09:25:48;;;;;;;;;;;21.50;55.30;;;;;;483294;246;1215;-74
2022/08/16 09:27:50;;;;;;;;;;;21.50;55.50;;;;;;483372;246;1158;-74
2022/08/16 09:29:51;;;;;;;;;;;21.30;55.40;;;;;;483094;246;1169;-74
2022/08/16 09:31:52;;;;;;;;;;;21.60;54.70;;;;;;483127;246;1077;-74
2022/08/16 09:33:54;;;;;;;;;;;21.80;53.80;;;;;;483155;246;1173;-74
2022/08/16 09:35:55;;;;;;;;;;;21.90;54.00;;;;;;483146;246;1074;-74
2022/08/16 09:37:57;;;;;;;;;;;21.80;54.10;;;;;;483269;246;1250;-74
2022/08/16 09:39:58;;;;;;;;;;;21.70;54.60;;;;;;483356;246;1195;-74
2022/08/16 09:41:59;;;;;;;;;;;21.50;55.10;;;;;;483452;246;1159;-74
2022/08/16 09:44:02;;;;;;;;;;;21.50;55.20;;;;;;483366;246;2192;-74
2022/08/16 09:46:02;;;;;;;;;;;21.40;55.10;;;;;;483117;246;1398;-74
2022/08/16 09:48:03;;;;;;;;;;;21.60;54.40;;;;;;483097;246;1346;-74
2022/08/16 09:50:05;;;;;;;;;;;21.80;53.40;;;;;;483050;246;1106;-74
2022/08/16 09:52:06;;;;;;;;;;;21.90;53.70;;;;;;483445;246;1144;-74
2022/08/16 09:54:09;;;;;;;;;;;21.80;54.10;;;;;;483252;246;1088;-74
2022/08/16 09:56:11;;;;;;;;;;;21.70;54.50;;;;;;483271;246;1186;-74
2022/08/16 09:58:11;;;;;;;;;;;21.60;54.70;;;;;;483192;246;1859;-74
2022/08/16 10:00:12;;;;;;;;;;;21.50;55.00;;;;;;483254;246;1042;-74
2022/08/16 10:02:15;;;;;;;;;;;21.30;54.60;;;;;;483276;246;2199;-74
2022/08/16 10:04:15;;;;;;;;;;;21.50;54.60;;;;;;483221;246;1326;-74
2022/08/16 10:06:16;;;;;;;;;;;21.70;53.70;;;;;;483349;246;1166;-74
2022/08/16 10:08:18;;;;;;;;;;;21.80;53.60;;;;;;483382;246;1189;-74
2022/08/16 10:10:19;;;;;;;;;;;21.70;53.80;;;;;;483225;246;1083;-74
2022/08/16 10:14:41;;;;;;;;;;;21.50;54.10;;;;;;483329;246;1275;-74
2022/08/16 10:16:44;;;;;;;;;;;21.30;54.20;;;;;;483218;246;1390;-74
2022/08/16 10:18:43;;;;;;;;;;;21.40;53.80;;;;;;483135;246;1370;-74
2022/08/16 10:20:44;;;;;;;;;;;21.70;53.30;;;;;;483212;246;1136;-74
2022/08/16 10:22:45;;;;;;;;;;;21.70;53.60;;;;;;483262;246;2211;-74
2022/08/16 10:24:47;;;;;;;;;;;21.60;54.00;;;;;;483343;246;1185;-74
2022/08/16 10:26:48;;;;;;;;;;;21.50;54.20;;;;;;483282;246;1196;-74
2022/08/16 10:28:50;;;;;;;;;;;21.40;54.30;;;;;;483286;246;1158;-74
2022/08/16 10:30:51;;;;;;;;;;;21.20;54.50;;;;;;483329;246;1135;-74
2022/08/16 10:32:52;;;;;;;;;;;21.50;53.80;;;;;;483443;246;1143;-74
2022/08/16 10:34:53;;;;;;;;;;;21.70;53.00;;;;;;483295;246;1513;-74
2022/08/16 10:36:55;;;;;;;;;;;21.80;53.10;;;;;;483340;246;1113;-74
2022/08/16 10:38:56;;;;;;;;;;;21.70;53.50;;;;;;483459;246;1418;-74
2022/08/16 10:40:57;;;;;;;;;;;21.70;53.70;;;;;;483456;246;1123;-74
2022/08/16 10:42:59;;;;;;;;;;;21.70;53.80;;;;;;483420;246;2180;-74
2022/08/16 10:45:01;;;;;;;;;;;21.60;54.10;;;;;;483342;246;1174;-74
2022/08/16 10:47:02;;;;;;;;;;;21.40;54.20;;;;;;483327;246;1388;-74
2022/08/16 10:49:03;;;;;;;;;;;21.10;54.70;;;;;;483294;246;1156;-74
2022/08/16 10:51:04;;;;;;;;;;;21.50;53.90;;;;;;483148;246;1249;-74
2022/08/16 10:53:06;;;;;;;;;;;21.70;53.60;;;;;;483330;246;1014;-74
2022/08/16 10:55:08;;;;;;;;;;;21.60;54.00;;;;;;483204;246;1301;-74
2022/08/16 10:57:09;;;;;;;;;;;21.50;54.10;;;;;;483265;246;1423;-74
2022/08/16 10:59:10;;;;;;;;;;;21.50;54.30;;;;;;483318;246;1838;-74
2022/08/16 11:01:11;;;;;;;;;;;21.50;54.30;;;;;;483191;246;1260;-74
2022/08/16 11:03:12;;;;;;;;;;;21.40;54.10;;;;;;483272;246;2188;-74
2022/08/16 11:05:14;;;;;;;;;;;21.60;53.50;;;;;;483353;246;1162;-74
2022/08/16 11:07:15;;;;;;;;;;;21.80;52.80;;;;;;483427;246;1057;-74
2022/08/16 11:09:16;;;;;;;;;;;22.00;52.80;;;;;;483287;246;1087;-74
2022/08/16 11:11:18;;;;;;;;;;;21.80;53.10;;;;;;483370;246;1143;-74
2022/08/16 11:13:19;;;;;;;;;;;21.70;53.60;;;;;;483464;246;1207;-74
2022/08/16 11:15:21;;;;;;;;;;;21.50;53.90;;;;;;483279;246;1264;-74
2022/08/16 11:17:22;;;;;;;;;;;21.50;54.20;;;;;;483239;246;1101;-74
2022/08/16 11:19:23;;;;;;;;;;;21.50;54.00;;;;;;483260;246;1241;-74
2022/08/16 11:21:25;;;;;;;;;;;21.30;54.20;;;;;;483237;246;1186;-74
2022/08/16 11:23:26;;;;;;;;;;;21.50;53.30;;;;;;483192;246;2199;-74
2022/08/16 11:25:28;;;;;;;;;;;21.80;52.50;;;;;;483187;246;1214;-74
2022/08/16 11:27:29;;;;;;;;;;;21.80;52.90;;;;;;483267;246;1116;-74
2022/08/16 11:29:30;;;;;;;;;;;21.80;52.90;;;;;;483232;246;1175;-74
2022/08/16 11:31:32;;;;;;;;;;;21.70;53.00;;;;;;483234;246;1096;-74
2022/08/16 11:33:33;;;;;;;;;;;21.50;53.30;;;;;;483169;246;1262;-74
2022/08/16 11:35:34;;;;;;;;;;;21.50;53.50;;;;;;483024;246;1026;-74
2022/08/16 11:37:36;;;;;;;;;;;21.20;53.90;;;;;;483032;246;1247;-74
2022/08/16 11:39:37;;;;;;;;;;;21.50;53.30;;;;;;483257;246;1198;-74
2022/08/16 11:41:38;;;;;;;;;;;21.70;52.50;;;;;;483250;246;1088;-74
2022/08/16 11:43:40;;;;;;;;;;;21.70;52.80;;;;;;483239;246;2187;-74
2022/08/16 11:45:41;;;;;;;;;;;21.60;53.10;;;;;;483307;246;1079;-74
2022/08/16 11:47:43;;;;;;;;;;;21.50;53.30;;;;;;483247;246;1114;-74
2022/08/16 11:49:44;;;;;;;;;;;21.40;53.50;;;;;;483292;246;1145;-74
2022/08/16 11:51:45;;;;;;;;;;;21.20;53.80;;;;;;483276;246;1058;-74
2022/08/16 11:53:47;;;;;;;;;;;21.40;53.30;;;;;;483318;246;1084;-74
2022/08/16 11:55:48;;;;;;;;;;;21.50;52.70;;;;;;483408;246;1060;-74
2022/08/16 11:57:49;;;;;;;;;;;21.60;52.90;;;;;;483461;246;1039;-74
2022/08/16 11:59:51;;;;;;;;;;;21.60;53.00;;;;;;483254;246;1079;-74